Time;durP1;ratioP1;P1;durP2;ratioP2;P2;SDS_P1;SDS_P2;PMS_P1;PMS_P2;Temp;Humidity;BMP_temperature;BMP_pressure;BME280_temperature;BME280_humidity;BME280_pressure;Samples;Min_cycle;Max_cycle;Signal;HPM_P1;HPM_P2
2022/02/15 00:00:22;;;;;;;6.43;3.20;;;;;;;6.21;93.29;100665.81;5056014;28;20040;-35
2022/02/15 00:02:48;;;;;;;7.93;3.15;;;;;;;6.18;93.00;100666.22;5055483;28;20385;-35
2022/02/15 00:05:13;;;;;;;9.80;3.03;;;;;;;6.14;92.69;100664.97;5054230;28;20449;-35
2022/02/15 00:07:39;;;;;;;6.35;3.30;;;;;;;6.03;92.80;100657.53;5055028;28;20039;-34
2022/02/15 00:10:08;;;;;;;6.75;3.15;;;;;;;6.02;92.71;100663.94;5055023;28;20104;-34
2022/02/15 00:12:34;;;;;;;9.18;3.95;;;;;;;5.99;93.06;100661.66;5055234;28;20079;-35
2022/02/15 00:14:59;;;;;;;8.50;3.00;;;;;;;6.00;92.79;100668.66;5055740;28;20040;-35
2022/02/15 00:17:24;;;;;;;6.20;3.17;;;;;;;5.97;92.92;100671.78;5054862;28;20025;-35
2022/02/15 00:19:50;;;;;;;10.70;4.37;;;;;;;5.93;92.35;100679.41;5055628;28;20094;-35
2022/02/15 00:22:15;;;;;;;7.00;3.10;;;;;;;5.85;93.38;100677.69;5055353;28;20065;-35
2022/02/15 00:24:41;;;;;;;5.40;2.70;;;;;;;5.89;92.96;100681.63;5055020;28;20029;-35
2022/02/15 00:27:06;;;;;;;7.95;3.28;;;;;;;5.80;93.17;100673.97;5054759;28;20025;-36
2022/02/15 00:29:31;;;;;;;7.60;3.47;;;;;;;5.84;93.71;100680.59;5055249;28;20036;-36
2022/02/15 00:31:57;;;;;;;7.40;3.40;;;;;;;5.80;94.14;100690.91;5054604;28;20036;-36
2022/02/15 00:34:22;;;;;;;6.23;3.63;;;;;;;5.82;94.83;100690.72;5054864;28;20079;-36
2022/02/15 00:36:47;;;;;;;7.20;3.50;;;;;;;5.75;94.27;100693.38;5054537;28;20606;-35
2022/02/15 00:39:13;;;;;;;9.60;3.47;;;;;;;5.83;94.84;100706.59;5055060;28;20036;-36
2022/02/15 00:41:38;;;;;;;5.80;2.70;;;;;;;5.81;94.64;100708.69;5055089;28;20119;-35
2022/02/15 00:44:04;;;;;;;4.90;2.90;;;;;;;5.81;93.41;100702.50;5054996;28;20021;-35
2022/02/15 00:46:29;;;;;;;6.80;3.43;;;;;;;5.83;94.04;100706.59;5054608;28;20061;-36
2022/02/15 00:48:54;;;;;;;7.50;3.00;;;;;;;5.74;93.99;100691.72;5053942;28;20041;-36
2022/02/15 00:51:19;;;;;;;4.27;2.57;;;;;;;5.85;94.02;100715.28;5054726;28;20029;-35
2022/02/15 00:53:45;;;;;;;5.77;3.33;;;;;;;5.83;93.84;100705.78;5054494;28;20523;-35
2022/02/15 00:56:11;;;;;;;5.72;2.40;;;;;;;5.83;93.88;100706.59;5054274;28;20053;-35
2022/02/15 00:58:37;;;;;;;;;;;;;;;5.90;92.96;100720.88;5055102;28;20060;-35
2022/02/15 01:01:02;;;;;;;4.43;2.10;;;;;;;5.85;93.23;100715.28;5054276;28;19956;-35
2022/02/15 01:03:28;;;;;;;7.95;2.22;;;;;;;5.86;93.85;100721.50;5054904;28;20699;-35
2022/02/15 01:05:53;;;;;;;4.57;2.20;;;;;;;5.87;93.35;100723.13;5054561;28;20035;-35
2022/02/15 01:08:19;;;;;;;4.28;1.92;;;;;;;5.86;93.36;100722.31;5053970;28;20059;-35
2022/02/15 01:10:46;;;;;;;4.80;2.17;;;;;;;5.85;93.98;100717.94;5054285;28;20032;-35
2022/02/15 01:13:12;;;;;;;4.38;2.10;;;;;;;5.83;93.56;100724.56;5053770;28;20032;-35
2022/02/15 01:15:38;;;;;;;4.32;2.03;;;;;;;5.83;93.38;100724.56;5054341;28;20029;-35
2022/02/15 01:18:03;;;;;;;5.83;2.30;;;;;;;5.81;93.26;100729.31;5053962;28;20162;-35
2022/02/15 01:20:28;;;;;;;4.17;2.10;;;;;;;5.82;93.59;100728.28;5054024;28;20066;-35
2022/02/15 01:22:55;;;;;;;4.63;2.00;;;;;;;5.79;93.79;100731.38;5053653;28;20263;-35
2022/02/15 01:25:20;;;;;;;5.72;2.10;;;;;;;5.79;93.81;100736.72;5054261;28;20025;-35
2022/02/15 01:27:46;;;;;;;6.15;2.20;;;;;;;5.78;93.96;100737.75;5054288;28;20032;-35
2022/02/15 01:30:11;;;;;;;6.40;2.50;;;;;;;5.75;94.14;100733.63;5054026;28;20024;-35
2022/02/15 01:32:37;;;;;;;7.03;2.40;;;;;;;5.63;94.93;100724.50;5053790;28;20426;-35
2022/02/15 01:35:03;;;;;;;4.53;2.53;;;;;;;5.72;94.45;100750.13;5054230;28;20067;-35
2022/02/15 01:37:29;;;;;;;4.78;2.45;;;;;;;5.70;95.08;100757.53;5053837;28;20036;-35
2022/02/15 01:39:54;;;;;;;5.10;2.50;;;;;;;5.71;94.87;100756.53;5053764;28;20029;-35
2022/02/15 01:42:20;;;;;;;7.87;2.83;;;;;;;5.72;95.38;100762.72;5053836;28;20404;-35
2022/02/15 01:44:46;;;;;;;4.85;2.10;;;;;;;5.64;94.79;100753.00;5053207;28;20108;-35
2022/02/15 01:47:21;;;;;;;3.83;2.17;;;;;;;5.72;95.13;100760.03;5053739;28;20075;-35
2022/02/15 01:49:47;;;;;;;4.50;2.00;;;;;;;5.63;94.71;100749.47;5054006;28;20442;-35
2022/02/15 01:52:12;;;;;;;6.03;2.27;;;;;;;5.72;95.34;100763.56;5053928;28;20075;-35
2022/02/15 01:54:37;;;;;;;5.47;2.20;;;;;;;5.67;94.91;100758.78;5053538;28;20032;-36
2022/02/15 01:57:03;;;;;;;5.20;2.33;;;;;;;5.71;94.69;100761.91;5053708;28;20045;-36
2022/02/15 01:59:29;;;;;;;3.17;1.77;;;;;;;5.65;94.78;100762.69;5053243;28;20098;-35
2022/02/15 02:01:54;;;;;;;5.70;2.97;;;;;;;5.67;94.72;100771.38;5053342;28;20032;-35
2022/02/15 02:07:03;;;;;;;3.00;1.90;;;;;;;5.64;95.78;100771.78;5053682;28;20056;-35
2022/02/15 02:09:28;;;;;;;5.30;2.28;;;;;;;5.56;95.06;100764.75;5053331;28;20033;-35
2022/02/15 02:11:54;;;;;;;3.90;2.20;;;;;;;5.61;94.79;100767.66;5053378;28;20025;-35
2022/02/15 02:14:19;;;;;;;3.53;2.53;;;;;;;5.58;95.45;100775.25;5053694;28;20032;-35
2022/02/15 02:16:45;;;;;;;5.23;1.90;;;;;;;5.56;95.68;100769.25;5052844;28;20045;-35
2022/02/15 02:19:10;;;;;;;4.67;2.30;;;;;;;5.52;95.44;100766.16;5053561;28;20035;-35
2022/02/15 02:21:39;;;;;;;7.57;3.57;;;;;;;5.49;95.99;100773.78;5053098;28;20370;-35
2022/02/15 02:24:05;;;;;;;4.60;2.67;;;;;;;5.40;96.38;100765.88;5052380;28;20417;-34
2022/02/15 02:26:31;;;;;;;4.95;2.35;;;;;;;5.48;96.30;100782.84;5053020;28;20150;-35
2022/02/15 02:28:57;;;;;;;7.90;3.30;;;;;;;5.48;96.39;100783.69;5052956;28;20032;-35
2022/02/15 02:31:22;;;;;;;8.33;3.77;;;;;;;5.47;96.87;100789.25;5054057;28;20017;-35
2022/02/15 02:33:48;;;;;;;6.33;3.47;;;;;;;5.49;96.79;100790.69;5053016;28;20306;-34
2022/02/15 02:36:13;;;;;;;6.90;4.10;;;;;;;5.47;97.90;100786.56;5053043;28;20025;-35
2022/02/15 02:38:39;;;;;;;9.82;4.63;;;;;;;5.38;98.08;100784.03;5052616;28;20040;-35
2022/02/15 02:41:04;;;;;;;10.40;4.97;;;;;;;5.39;97.71;100779.50;5053213;28;20025;-35
2022/02/15 02:43:29;;;;;;;8.15;5.43;;;;;;;5.40;98.04;100783.81;5053140;28;20112;-35
2022/02/15 02:45:55;;;;;;;9.00;5.53;;;;;;;5.30;98.38;100769.97;5052877;28;20088;-35
2022/02/15 02:48:20;;;;;;;11.67;5.40;;;;;;;5.36;97.54;100780.72;5053121;28;20406;-35
2022/02/15 02:50:45;;;;;;;8.27;5.97;;;;;;;5.28;98.31;100769.34;5053102;28;20035;-36
2022/02/15 02:53:11;;;;;;;10.00;5.83;;;;;;;5.45;98.43;100799.31;5056413;28;20021;-35
2022/02/15 02:55:37;;;;;;;9.00;5.88;;;;;;;5.49;98.43;100805.94;5057021;28;20492;-35
2022/02/15 02:58:03;;;;;;;8.45;6.03;;;;;;;5.45;99.24;100800.16;5057423;28;20052;-35
2022/02/15 03:00:28;;;;;;;8.48;6.25;;;;;;;5.41;98.86;100802.41;5056750;28;20037;-35
2022/02/15 03:02:53;;;;;;;10.47;6.63;;;;;;;5.42;98.76;100800.56;5056675;28;20025;-35
2022/02/15 03:05:19;;;;;;;10.60;7.23;;;;;;;5.43;98.84;100804.91;5056784;28;20044;-35
2022/02/15 03:07:44;;;;;;;12.20;6.57;;;;;;;5.44;99.48;100817.28;5056472;28;20051;-35
2022/02/15 03:10:09;;;;;;;10.37;7.17;;;;;;;5.42;99.07;100808.63;5057250;28;20025;-35
2022/02/15 03:12:35;;;;;;;10.77;8.10;;;;;;;5.42;99.12;100814.81;5056483;28;20033;-35
2022/02/15 03:15:01;;;;;;;11.17;6.93;;;;;;;5.43;99.34;100818.31;5056970;28;20381;-35
2022/02/15 03:17:26;;;;;;;14.10;7.80;;;;;;;5.42;99.60;100824.69;5056320;28;20029;-35
2022/02/15 03:19:53;;;;;;;12.15;7.78;;;;;;;5.42;99.31;100830.88;5056084;28;20099;-35
2022/02/15 03:22:19;;;;;;;12.70;7.95;;;;;;;5.46;98.78;100817.06;5056213;28;20045;-35
2022/02/15 03:24:45;;;;;;;13.27;7.15;;;;;;;5.46;99.10;100827.78;5056171;28;20434;-35
2022/02/15 03:27:11;;;;;;;10.27;7.57;;;;;;;5.34;99.14;100806.09;5056671;28;20382;-35
2022/02/15 03:29:36;;;;;;;8.80;7.40;;;;;;;5.41;99.44;100821.16;5056462;28;20083;-35
2022/02/15 03:32:02;;;;;;;11.10;8.00;;;;;;;5.42;99.54;100828.22;5055985;28;20078;-35
2022/02/15 03:34:27;;;;;;;10.65;7.72;;;;;;;5.36;99.84;100823.59;5056575;28;20090;-35
2022/02/15 03:36:52;;;;;;;9.97;7.80;;;;;;;5.39;99.72;100828.59;5056081;28;20037;-35
2022/02/15 03:39:18;;;;;;;14.03;8.43;;;;;;;5.37;100.00;100835.19;5056521;28;20044;-35
2022/02/15 03:44:27;;;;;;;11.82;8.23;;;;;;;5.31;100.00;100836.78;5055918;28;20063;-35
2022/02/15 03:46:53;;;;;;;14.20;8.93;;;;;;;5.36;100.00;100845.06;5056238;28;20100;-35
2022/02/15 03:49:19;;;;;;;14.15;9.43;;;;;;;5.37;100.00;100851.28;5055879;28;20041;-35
2022/02/15 03:51:46;;;;;;;12.32;9.13;;;;;;;5.36;100.00;100863.84;5055224;28;20040;-35
2022/02/15 03:54:12;;;;;;;11.43;9.70;;;;;;;5.34;100.00;100860.53;5055664;28;20472;-35
2022/02/15 03:56:37;;;;;;;12.73;9.57;;;;;;;5.31;100.00;100863.59;5055896;28;20049;-35
2022/02/15 03:59:06;;;;;;;14.37;10.70;;;;;;;5.23;100.00;100855.72;5055862;28;20393;-36
2022/02/15 04:01:31;;;;;;;14.52;10.00;;;;;;;5.27;100.00;100875.75;5055493;28;20036;-35
2022/02/15 04:03:57;;;;;;;14.43;11.13;;;;;;;5.29;100.00;100872.88;5055240;28;20021;-36
2022/02/15 04:06:22;;;;;;;13.47;10.50;;;;;;;5.28;100.00;100874.72;5055903;28;20283;-36
2022/02/15 04:08:48;;;;;;;14.63;10.33;;;;;;;5.18;100.00;100868.88;5055567;28;20401;-35
2022/02/15 04:11:13;;;;;;;14.30;10.38;;;;;;;5.24;100.00;100878.81;5055559;28;20025;-35
2022/02/15 04:13:39;;;;;;;15.50;10.52;;;;;;;5.21;100.00;100881.88;5054912;28;20366;-35
2022/02/15 04:16:05;;;;;;;13.52;10.55;;;;;;;5.23;100.00;100892.44;5055712;28;20032;-35
2022/02/15 04:18:31;;;;;;;14.40;10.20;;;;;;;5.24;100.00;100884.19;5055151;28;20025;-35
2022/02/15 04:20:57;;;;;;;13.55;10.32;;;;;;;5.22;100.00;100886.25;5055413;28;20086;-35
2022/02/15 04:23:22;;;;;;;16.23;9.83;;;;;;;5.15;100.00;100882.66;5054267;28;20041;-35
2022/02/15 04:25:48;;;;;;;18.00;12.10;;;;;;;5.13;100.00;100884.72;5055299;28;20029;-35
2022/02/15 04:28:13;;;;;;;18.33;11.13;;;;;;;5.19;100.00;100913.44;5055470;28;20465;-35
2022/02/15 04:30:38;;;;;;;13.07;10.17;;;;;;;5.20;100.00;100909.72;5054760;28;20070;-35
2022/02/15 04:33:04;;;;;;;13.93;10.13;;;;;;;5.19;100.00;100910.75;5054737;28;20530;-35
2022/02/15 04:35:29;;;;;;;12.30;9.87;;;;;;;5.18;100.00;100911.78;5055154;28;20095;-35
2022/02/15 04:37:54;;;;;;;14.37;10.80;;;;;;;5.12;100.00;100907.16;5054917;28;20044;-35
2022/02/15 04:40:20;;;;;;;15.20;10.37;;;;;;;5.18;100.00;100914.47;5054916;28;20147;-35
2022/02/15 04:42:45;;;;;;;11.90;9.73;;;;;;;5.16;100.00;100929.91;5054891;28;20060;-34
2022/02/15 04:45:11;;;;;;;13.77;10.40;;;;;;;5.07;100.00;100917.66;5054669;28;20054;-35
2022/02/15 04:47:36;;;;;;;16.37;10.90;;;;;;;5.15;100.00;100929.06;5054640;28;20032;-35
2022/02/15 04:50:02;;;;;;;16.80;11.57;;;;;;;5.04;100.00;100918.06;5054639;28;20267;-34
2022/02/15 04:52:28;;;;;;;15.65;11.38;;;;;;;5.09;100.00;100929.03;5055043;28;20035;-35
2022/02/15 04:54:53;;;;;;;13.37;10.80;;;;;;;5.09;100.00;100929.03;5054853;28;20512;-35
2022/02/15 04:57:18;;;;;;;14.57;10.23;;;;;;;5.13;100.00;100935.66;5054719;28;20405;-35
2022/02/15 04:59:44;;;;;;;14.43;11.50;;;;;;;5.07;100.00;100926.50;5054973;28;20488;-35
2022/02/15 05:02:12;;;;;;;14.77;10.23;;;;;;;4.98;100.00;100908.94;5052954;28;20024;-35
2022/02/15 05:04:49;;;;;;;12.57;10.20;;;;;;;5.14;100.00;100929.28;5054657;28;20477;-35
2022/02/15 05:07:16;;;;;;;13.73;10.85;;;;;;;5.09;100.00;100924.50;5054965;28;20025;-35
2022/02/15 05:09:42;;;;;;;13.85;10.88;;;;;;;5.09;100.00;100937.88;5054399;28;20473;-35
2022/02/15 05:12:07;;;;;;;14.43;11.00;;;;;;;5.10;100.00;100939.53;5054564;28;20032;-35
2022/02/15 05:14:33;;;;;;;15.13;11.27;;;;;;;5.06;100.00;100934.75;5053728;28;20032;-38
2022/02/15 05:16:58;;;;;;;18.53;12.33;;;;;;;5.10;100.00;100946.75;5054296;28;20064;-35
2022/02/15 05:19:23;;;;;;;16.27;11.67;;;;;;;5.11;100.00;100948.41;5054567;28;20025;-35
2022/02/15 05:21:49;;;;;;;15.70;11.37;;;;;;;5.12;100.00;100947.38;5054225;28;20057;-35
2022/02/15 05:24:14;;;;;;;15.13;10.97;;;;;;;5.15;100.00;100955.06;5054503;28;20021;-35
2022/02/15 05:26:39;;;;;;;18.53;11.77;;;;;;;5.15;100.00;100955.06;5053612;28;20029;-35
2022/02/15 05:29:05;;;;;;;13.23;11.47;;;;;;;5.16;100.00;100957.53;5053628;28;20032;-35
2022/02/15 05:31:30;;;;;;;14.57;12.30;;;;;;;5.14;100.00;100951.53;5053825;28;20029;-35
2022/02/15 05:33:55;;;;;;;16.07;11.90;;;;;;;5.21;100.00;100956.94;5054070;28;20111;-35
2022/02/15 05:36:21;;;;;;;14.43;11.30;;;;;;;5.22;100.00;100955.94;5054284;28;20037;-35
2022/02/15 05:38:46;;;;;;;14.53;11.47;;;;;;;5.24;100.00;100958.44;5053893;28;20029;-35
2022/02/15 05:41:12;;;;;;;14.77;10.77;;;;;;;5.26;100.00;100967.09;5054082;28;20150;-35
2022/02/15 05:43:37;;;;;;;15.15;11.30;;;;;;;5.24;100.00;100964.63;5053849;28;20024;-35
2022/02/15 05:46:03;;;;;;;18.13;11.65;;;;;;;5.27;100.00;100968.75;5054202;28;20108;-35
2022/02/15 05:48:28;;;;;;;15.00;10.95;;;;;;;5.25;100.00;100968.97;5053445;28;20128;-35
2022/02/15 05:50:55;;;;;;;16.27;11.20;;;;;;;5.26;100.00;100965.25;5053714;28;20079;-34
2022/02/15 05:53:22;;;;;;;15.15;11.75;;;;;;;5.25;100.00;100971.63;5053360;28;20470;-35
2022/02/15 05:55:52;;;;;;;15.65;11.75;;;;;;;5.25;100.00;100966.28;5053628;28;20089;-35
2022/02/15 05:58:19;;;;;;;19.05;12.45;;;;;;;5.24;100.00;100963.78;5053213;28;20044;-35
2022/02/15 06:00:44;;;;;;;13.50;11.10;;;;;;;5.26;100.00;100967.91;5053572;28;20090;-35
2022/02/15 06:05:54;;;;;;;13.35;11.80;;;;;;;5.28;100.00;100967.75;5053274;28;20036;-35
2022/02/15 06:08:19;;;;;;;14.97;11.23;;;;;;;5.27;100.00;100974.13;5053076;28;20032;-35
2022/02/15 06:10:46;;;;;;;15.52;11.68;;;;;;;5.27;100.00;100980.34;5053654;28;20025;-36
2022/02/15 06:13:15;;;;;;;19.63;12.80;;;;;;;5.28;100.00;100981.97;5053035;28;20068;-35
2022/02/15 06:15:41;;;;;;;18.95;12.77;;;;;;;5.20;100.00;100971.38;5053547;28;20041;-36
2022/02/15 06:18:07;;;;;;;17.08;11.55;;;;;;;5.27;100.00;100990.19;5053207;28;20035;-36
2022/02/15 06:20:32;;;;;;;15.70;11.77;;;;;;;5.25;100.00;100977.00;5052928;28;20041;-36
2022/02/15 06:22:58;;;;;;;15.73;11.70;;;;;;;5.24;100.00;100985.25;5053259;28;20036;-36
2022/02/15 06:25:23;;;;;;;17.67;13.27;;;;;;;5.18;100.00;100970.75;5053649;28;20032;-36
2022/02/15 06:27:48;;;;;;;16.50;11.80;;;;;;;5.16;100.00;100970.09;5052834;28;20086;-36
2022/02/15 06:30:14;;;;;;;15.83;11.53;;;;;;;5.23;100.00;100986.28;5053216;28;20032;-36
2022/02/15 06:32:39;;;;;;;16.60;12.40;;;;;;;5.27;100.00;101000.94;5053015;28;20079;-36
2022/02/15 06:35:05;;;;;;;17.37;11.47;;;;;;;5.13;100.00;100984.75;5053216;28;20159;-35
2022/02/15 06:37:30;;;;;;;17.27;11.65;;;;;;;5.25;100.00;101003.81;5053164;28;20476;-35
2022/02/15 06:39:56;;;;;;;16.03;12.40;;;;;;;5.25;100.00;101003.81;5052761;28;20037;-35
2022/02/15 06:42:21;;;;;;;18.73;11.80;;;;;;;5.25;100.00;101014.53;5052696;28;20033;-42
2022/02/15 06:44:47;;;;;;;13.87;11.63;;;;;;;5.23;100.00;101008.56;5052660;28;20146;-35
2022/02/15 06:47:12;;;;;;;19.27;12.52;;;;;;;5.27;100.00;101017.88;5052769;28;20025;-35
2022/02/15 06:49:37;;;;;;;17.87;12.60;;;;;;;5.27;100.00;101017.00;5052893;28;20029;-35
2022/02/15 06:52:03;;;;;;;18.37;12.53;;;;;;;5.29;100.00;101020.34;5053102;28;20279;-35
2022/02/15 06:54:29;;;;;;;20.73;12.15;;;;;;;5.30;100.00;101022.84;5051904;28;20044;-35
2022/02/15 06:56:54;;;;;;;18.50;12.30;;;;;;;5.31;100.00;101029.84;5053299;28;20083;-34
2022/02/15 06:59:20;;;;;;;19.07;12.80;;;;;;;5.27;100.00;101017.88;5053035;28;20453;-35
2022/02/15 07:01:45;;;;;;;17.27;12.55;;;;;;;5.34;100.00;101029.47;5052663;28;20078;-36
2022/02/15 07:04:11;;;;;;;20.50;13.02;;;;;;;5.35;100.00;101032.97;5052757;28;20488;-35
2022/02/15 07:06:37;;;;;;;19.05;12.77;;;;;;;5.22;100.00;101016.75;5052622;28;20029;-35
2022/02/15 07:09:03;;;;;;;20.05;13.32;;;;;;;5.28;100.00;101032.94;5053217;28;20021;-35
2022/02/15 07:11:28;;;;;;;14.50;12.43;;;;;;;5.28;100.00;101035.63;5053200;28;20091;-35
2022/02/15 07:13:53;;;;;;;21.23;12.43;;;;;;;5.20;100.00;101027.69;5053196;28;20096;-35
2022/02/15 07:16:19;;;;;;;15.33;12.47;;;;;;;5.28;100.00;101043.66;5053215;28;20029;-36
2022/02/15 07:18:44;;;;;;;15.55;12.13;;;;;;;5.27;100.00;101041.16;5052783;28;20099;-35
2022/02/15 07:21:10;;;;;;;17.33;14.00;;;;;;;5.29;100.00;101045.31;5052184;28;20037;-35
2022/02/15 07:23:35;;;;;;;20.70;13.90;;;;;;;5.28;100.00;101046.34;5052807;28;20038;-35
2022/02/15 07:26:01;;;;;;;20.23;13.73;;;;;;;5.31;100.00;101048.63;5052981;28;20142;-36
2022/02/15 07:28:28;;;;;;;18.08;13.80;;;;;;;5.13;100.00;101026.81;5052247;28;20025;-35
2022/02/15 07:30:54;;;;;;;19.02;12.88;;;;;;;5.29;100.00;101066.75;5053219;28;20108;-35
2022/02/15 07:33:19;;;;;;;23.40;14.35;;;;;;;5.29;100.00;101066.75;5052488;28;20083;-35
2022/02/15 07:35:45;;;;;;;19.70;13.30;;;;;;;5.31;100.00;101070.06;5052210;28;20543;-35
2022/02/15 07:38:10;;;;;;;18.03;12.30;;;;;;;5.33;100.00;101075.25;5054052;28;20029;-35
2022/02/15 07:40:35;;;;;;;22.33;13.30;;;;;;;5.32;100.00;101069.06;5056316;28;20104;-35
2022/02/15 07:43:01;;;;;;;23.73;13.77;;;;;;;5.30;100.00;101064.91;5055984;28;20100;-35
2022/02/15 07:45:26;;;;;;;22.87;12.23;;;;;;;5.15;100.00;101052.38;5056476;28;20087;-35
2022/02/15 07:47:52;;;;;;;15.70;12.30;;;;;;;5.33;100.00;101089.50;5055816;28;20029;-35
2022/02/15 07:50:19;;;;;;;;;;;;;;;5.38;100.00;101080.88;5056866;28;20025;-35
2022/02/15 07:52:45;;;;;;;20.40;12.30;;;;;;;5.24;100.00;101060.31;5055724;28;19970;-35
2022/02/15 07:55:14;;;;;;;12.43;10.63;;;;;;;5.32;100.00;101090.53;5055553;28;20025;-36
2022/02/15 07:57:41;;;;;;;21.70;12.27;;;;;;;5.24;100.00;101082.59;5055856;28;20465;-36
2022/02/15 08:00:07;;;;;;;;;;;;;;;5.39;100.00;101101.31;5056280;28;20033;-35
2022/02/15 08:02:32;;;;;;;16.98;10.05;;;;;;;5.20;100.00;101084.00;5055202;28;19984;-35
2022/02/15 08:04:58;;;;;;;16.13;9.37;;;;;;;5.27;100.00;101084.91;5055710;28;20033;-35
2022/02/15 08:07:23;;;;;;;15.17;9.70;;;;;;;5.44;100.00;101109.63;5055116;28;20489;-36
2022/02/15 08:09:48;;;;;;;17.03;10.20;;;;;;;5.45;100.00;101113.94;5055494;28;20144;-35
2022/02/15 08:12:17;;;;;;;16.27;9.30;;;;;;;5.48;100.00;101113.59;5055222;28;20159;-35
2022/02/15 08:14:46;;;;;;;12.93;9.25;;;;;;;5.51;100.00;101109.66;5056001;28;20378;-35
2022/02/15 08:17:12;;;;;;;15.43;9.20;;;;;;;5.56;100.00;101115.28;5055739;28;20064;-35
2022/02/15 08:19:38;;;;;;;15.30;8.07;;;;;;;5.57;100.00;101116.97;5055512;28;20174;-35
2022/02/15 08:22:03;;;;;;;16.90;7.70;;;;;;;5.64;100.00;101120.53;5055179;28;20049;-35
2022/02/15 08:24:29;;;;;;;15.70;7.28;;;;;;;5.66;100.00;101113.97;5055648;28;20036;-35
2022/02/15 08:26:56;;;;;;;14.07;7.78;;;;;;;5.67;100.00;101123.69;5054952;28;20029;-35
2022/02/15 08:29:21;;;;;;;16.00;6.95;;;;;;;5.72;100.00;101120.41;5055018;28;20033;-35
2022/02/15 08:31:47;;;;;;;14.27;6.90;;;;;;;5.76;100.00;101119.03;5055267;28;20035;-35
2022/02/15 08:34:12;;;;;;;16.07;6.23;;;;;;;5.74;100.00;101112.16;5054741;28;20274;-34
2022/02/15 08:36:38;;;;;;;11.80;5.97;;;;;;;5.82;100.00;101128.97;5055443;28;20090;-34
2022/02/15 08:39:05;;;;;;;14.93;5.70;;;;;;;5.84;100.00;101132.28;5055016;28;20047;-35
2022/02/15 08:41:30;;;;;;;11.18;5.20;;;;;;;5.85;100.00;101133.94;5054863;28;20151;-35
2022/02/15 08:43:56;;;;;;;17.00;5.78;;;;;;;5.87;100.00;101128.41;5054615;28;20485;-35
2022/02/15 08:46:22;;;;;;;11.27;4.30;;;;;;;5.87;100.00;101128.41;5054694;28;20025;-35
2022/02/15 08:48:47;;;;;;;11.50;4.13;;;;;;;5.90;100.00;101136.91;5055303;28;20025;-35
2022/02/15 08:51:14;;;;;;;10.83;4.00;;;;;;;5.90;100.00;101136.91;5054894;28;20087;-35
2022/02/15 08:53:40;;;;;;;10.52;4.03;;;;;;;5.94;100.00;101137.34;5054630;28;20029;-35
2022/02/15 08:56:05;;;;;;;12.13;4.60;;;;;;;5.97;100.00;101134.28;5054858;28;20442;-35
2022/02/15 08:58:32;;;;;;;9.37;4.17;;;;;;;5.92;100.00;101128.69;5054868;28;20033;-35
2022/02/15 09:01:00;;;;;;;11.25;3.90;;;;;;;5.97;100.00;101136.16;5053578;28;20116;-35
2022/02/15 09:03:25;;;;;;;8.43;3.65;;;;;;;6.06;100.00;101129.63;5055136;28;20108;-35
2022/02/15 09:05:51;;;;;;;8.70;4.23;;;;;;;6.21;100.00;101140.28;5054927;28;20112;-35
2022/02/15 09:08:16;;;;;;;9.47;4.00;;;;;;;6.31;98.67;101138.06;5054366;28;20044;-35
2022/02/15 09:10:41;;;;;;;11.83;4.30;;;;;;;6.41;96.62;101147.44;5055090;28;20075;-35
2022/02/15 09:13:07;;;;;;;10.10;4.03;;;;;;;6.56;97.96;101147.34;5054284;28;20017;-35
2022/02/15 09:15:32;;;;;;;13.30;5.00;;;;;;;6.61;96.63;101144.06;5054505;28;20385;-35
2022/02/15 09:17:58;;;;;;;14.23;4.60;;;;;;;6.63;95.82;101142.00;5054084;28;20025;-35
2022/02/15 09:20:23;;;;;;;10.43;3.90;;;;;;;6.62;95.11;101141.16;5053600;28;20037;-35
2022/02/15 09:22:49;;;;;;;10.70;4.50;;;;;;;6.58;94.77;101136.38;5053775;28;20286;-35
2022/02/15 09:25:16;;;;;;;6.30;3.23;;;;;;;6.67;92.93;101143.25;5054315;28;20029;-35
2022/02/15 09:27:42;;;;;;;7.00;3.05;;;;;;;6.54;90.61;101108.25;5053965;28;20056;-35
2022/02/15 09:30:08;;;;;;;7.75;2.92;;;;;;;6.65;89.13;101140.78;5054019;28;20064;-34
2022/02/15 09:32:33;;;;;;;12.18;3.60;;;;;;;6.71;89.15;101141.84;5053523;28;20555;-35
2022/02/15 09:34:58;;;;;;;8.50;2.97;;;;;;;6.75;87.32;101153.84;5053810;28;20025;-35
2022/02/15 09:37:24;;;;;;;7.77;2.80;;;;;;;6.78;86.86;101144.56;5053638;28;20346;-35
2022/02/15 09:39:50;;;;;;;12.40;2.33;;;;;;;6.78;85.48;101166.06;5054402;28;20361;-35
2022/02/15 09:42:16;;;;;;;9.45;2.10;;;;;;;6.74;85.10;101173.72;5053886;28;20021;-35
2022/02/15 09:44:42;;;;;;;6.45;2.17;;;;;;;6.69;87.29;101162.72;5053380;28;20025;-35
2022/02/15 09:47:11;;;;;;;6.90;2.40;;;;;;;6.65;87.20;101169.50;5053261;28;20075;-36
2022/02/15 09:49:48;;;;;;;10.70;2.90;;;;;;;6.59;86.70;101167.63;5054042;28;20059;-35
2022/02/15 09:52:14;;;;;;;10.30;3.03;;;;;;;6.72;88.23;101173.06;5053547;28;20078;-35
2022/02/15 09:54:40;;;;;;;9.38;2.95;;;;;;;6.85;87.52;101166.94;5053769;28;20025;-35
2022/02/15 09:57:06;;;;;;;9.93;2.88;;;;;;;7.02;86.43;101175.50;5053644;28;20118;-35
2022/02/15 09:59:31;;;;;;;10.20;3.15;;;;;;;7.22;87.18;101174.56;5053217;28;20033;-35
2022/02/15 10:01:57;;;;;;;7.13;2.80;;;;;;;7.35;83.67;101179.16;5053204;28;20028;-34
2022/02/15 10:04:34;;;;;;;8.95;2.60;;;;;;;7.38;84.71;101165.31;5053836;28;20037;-35
2022/02/15 10:07:04;;;;;;;7.65;3.05;;;;;;;7.48;81.31;101167.63;5053228;28;20025;-35
2022/02/15 10:09:30;;;;;;;12.02;3.13;;;;;;;7.60;83.00;101170.53;5052809;28;20041;-35
2022/02/15 10:12:06;;;;;;;8.00;2.72;;;;;;;7.53;80.79;101159.75;5053300;28;20103;-35
2022/02/15 10:14:39;;;;;;;8.67;2.60;;;;;;;7.62;80.96;101176.56;5053529;28;20029;-36
2022/02/15 10:17:08;;;;;;;6.47;2.58;;;;;;;7.69;81.57;101164.75;5053256;28;20729;-35
2022/02/15 10:19:33;;;;;;;6.65;2.58;;;;;;;7.66;79.65;101175.94;5052971;28;20032;-35
2022/02/15 10:22:01;;;;;;;8.18;2.03;;;;;;;7.71;80.70;101165.41;5052925;28;20029;-36
2022/02/15 10:24:29;;;;;;;9.95;2.40;;;;;;;7.80;79.54;101165.19;5053886;28;20040;-35
2022/02/15 10:27:07;;;;;;;8.52;2.50;;;;;;;7.79;78.01;101175.13;5052604;28;20025;-34
2022/02/15 10:29:35;;;;;;;6.18;2.38;;;;;;;7.68;79.20;101181.13;5053803;28;20326;-35
2022/02/15 10:32:06;;;;;;;11.70;3.50;;;;;;;7.49;78.71;101180.84;5053794;28;20030;-35
2022/02/15 10:34:32;;;;;;;9.60;3.15;;;;;;;7.31;78.96;101182.44;5053226;28;20127;-35
2022/02/15 10:37:00;;;;;;;11.77;2.97;;;;;;;7.10;78.24;101159.19;5053025;28;20503;-36
2022/02/15 10:39:43;;;;;;;5.03;2.22;;;;;;;7.33;78.93;101159.72;5053533;28;20032;-36
2022/02/15 10:42:11;;;;;;;7.13;2.83;;;;;;;7.49;77.97;101178.16;5053065;28;20036;-36
2022/02/15 10:44:53;;;;;;;6.78;2.72;;;;;;;7.47;77.16;101158.72;5053322;28;20036;-36
2022/02/15 10:47:20;;;;;;;7.05;2.85;;;;;;;7.55;77.59;101157.69;5052812;28;20029;-36
2022/02/15 10:49:45;;;;;;;6.18;2.90;;;;;;;7.66;74.47;101167.03;5052887;28;20021;-36
2022/02/15 10:52:11;;;;;;;4.50;2.65;;;;;;;7.66;74.58;101149.03;5052847;28;20025;-36
2022/02/15 10:54:37;;;;;;;5.30;2.25;;;;;;;7.85;73.74;101162.72;5053709;28;20055;-36
2022/02/15 10:57:04;;;;;;;7.50;2.72;;;;;;;7.93;75.32;101154.44;5053065;28;20045;-35
2022/02/15 10:59:34;;;;;;;7.97;2.40;;;;;;;8.04;74.70;101159.22;5052844;28;20029;-35
2022/02/15 11:02:03;;;;;;;3.47;2.05;;;;;;;8.05;74.27;101158.16;5052590;28;20021;-35
2022/02/15 11:04:32;;;;;;;6.30;2.38;;;;;;;7.96;72.31;101160.25;5053147;28;20453;-35
2022/02/15 11:07:05;;;;;;;7.43;2.42;;;;;;;7.91;72.91;101141.19;5052914;28;20024;-35
2022/02/15 11:09:37;;;;;;;5.50;2.78;;;;;;;7.95;73.22;101146.97;5051681;28;20127;-35
2022/02/15 11:12:14;;;;;;;6.63;2.20;;;;;;;7.97;74.02;101143.06;5053053;28;20048;-35
2022/02/15 11:14:40;;;;;;;7.47;2.53;;;;;;;7.98;71.55;101136.63;5056599;28;20032;-35
2022/02/15 11:17:17;;;;;;;7.27;2.27;;;;;;;7.95;72.94;101139.75;5056734;28;20087;-35
2022/02/15 11:19:42;;;;;;;5.38;1.85;;;;;;;7.77;71.45;101139.53;5056161;28;20032;-34
2022/02/15 11:22:18;;;;;;;4.73;2.40;;;;;;;7.61;71.74;101123.75;5056448;28;20082;-34
2022/02/15 11:24:44;;;;;;;5.97;1.50;;;;;;;7.68;72.06;101121.91;5057157;28;20021;-35